createdAt,value
2023-11-18T00:03:57.026Z,1.90
2023-11-18T00:08:59.168Z,1.88
2023-11-18T00:14:01.422Z,1.86
2023-11-18T00:19:06.168Z,1.83
2023-11-18T00:24:08.893Z,1.82
2023-11-18T00:29:11.701Z,1.81
2023-11-18T00:34:13.649Z,1.80
2023-11-18T00:39:15.604Z,1.80
2023-11-18T00:44:18.764Z,1.80
2023-11-18T00:49:21.501Z,1.80
2023-11-18T00:54:24.562Z,1.79
2023-11-18T00:59:27.688Z,1.78
2023-11-18T01:04:30.070Z,1.76
2023-11-18T01:09:37.608Z,1.73
2023-11-18T01:14:40.771Z,1.70
2023-11-18T01:19:43.257Z,1.64
2023-11-18T01:24:46.954Z,1.56
2023-11-18T01:29:49.763Z,1.48
2023-11-18T01:34:52.047Z,1.41
2023-11-18T01:39:54.097Z,1.35
2023-11-18T01:44:57.135Z,1.29
2023-11-18T01:50:00.957Z,1.24
2023-11-18T01:55:07.366Z,1.21
2023-11-18T02:00:12.032Z,1.20
2023-11-18T02:05:14.272Z,1.21
2023-11-18T02:10:18.313Z,1.22
2023-11-18T02:15:22.128Z,1.21
2023-11-18T02:20:25.486Z,1.22
2023-11-18T02:25:29.591Z,1.22
2023-11-18T02:30:31.697Z,1.19
2023-11-18T02:35:43.919Z,1.14
2023-11-18T02:40:48.886Z,1.05
2023-11-18T02:45:52.074Z,0.93
2023-11-18T02:50:55.165Z,0.80
2023-11-18T02:56:03.230Z,0.72
2023-11-18T03:01:05.670Z,0.65
2023-11-18T03:06:07.889Z,0.58
2023-11-18T03:11:10.043Z,0.49
2023-11-18T03:16:13.609Z,0.40
2023-11-18T03:21:16.020Z,0.30
2023-11-18T03:26:18.049Z,0.21
2023-11-18T03:31:20.642Z,0.13
2023-11-18T03:36:22.685Z,0.07
2023-11-18T03:41:24.618Z,-0.02
2023-11-18T03:46:26.619Z,-0.09
2023-11-18T03:51:29.541Z,-0.16
2023-11-18T03:56:31.548Z,-0.24
2023-11-18T04:01:33.653Z,-0.32
2023-11-18T04:06:35.997Z,-0.41
2023-11-18T04:11:39.297Z,-0.46
2023-11-18T04:16:41.372Z,-0.48
2023-11-18T04:21:45.821Z,-0.51
2023-11-18T04:26:48.838Z,-0.51
2023-11-18T04:31:51.254Z,-0.52
2023-11-18T04:36:53.284Z,-0.51
2023-11-18T04:41:57.095Z,-0.48
2023-11-18T04:46:59.276Z,-0.45
2023-11-18T04:52:01.593Z,-0.43
2023-11-18T04:57:04.172Z,-0.41
2023-11-18T05:02:07.150Z,-0.37
2023-11-18T05:07:09.257Z,-0.34
2023-11-18T05:12:11.341Z,-0.30
2023-11-18T05:17:13.386Z,-0.26
2023-11-18T05:22:15.451Z,-0.23
2023-11-18T05:27:18.618Z,-0.20
2023-11-18T05:32:23.905Z,-0.17
2023-11-18T05:37:26.067Z,-0.15
2023-11-18T05:42:30.716Z,-0.12
2023-11-18T05:47:37.700Z,-0.08
2023-11-18T05:52:39.866Z,-0.05
2023-11-18T05:57:42.783Z,-0.03
2023-11-18T06:02:44.965Z,0.01
2023-11-18T06:07:48.140Z,0.05
2023-11-18T06:12:50.175Z,0.08
2023-11-18T06:17:52.313Z,0.10
2023-11-18T06:22:55.015Z,0.13
2023-11-18T06:27:58.893Z,0.17
2023-11-18T06:33:01.069Z,0.21
2023-11-18T06:38:03.619Z,0.24
2023-11-18T06:43:11.607Z,0.27
2023-11-18T06:48:15.602Z,0.31
2023-11-18T06:53:17.708Z,0.36
2023-11-18T06:58:19.673Z,0.38
2023-11-18T07:03:22.641Z,0.39
2023-11-18T07:08:25.243Z,0.40
2023-11-18T07:13:27.621Z,0.33
2023-11-18T07:18:35.008Z,0.25
2023-11-18T07:23:37.958Z,0.20
2023-11-18T07:28:40.602Z,0.45
2023-11-18T07:33:45.387Z,1.11
2023-11-18T07:38:53.147Z,1.40
2023-11-18T07:43:57.079Z,1.34
2023-11-18T07:49:02.279Z,1.46
2023-11-18T07:54:04.789Z,1.68
2023-11-18T07:59:09.075Z,2.66
2023-11-18T08:04:11.238Z,3.43
2023-11-18T08:09:18.238Z,3.91
2023-11-18T08:14:20.452Z,4.31
2023-11-18T08:19:23.856Z,4.71
2023-11-18T08:24:25.990Z,5.10
2023-11-18T08:29:32.076Z,5.24
2023-11-18T08:34:36.457Z,5.04
2023-11-18T08:39:38.429Z,4.45
2023-11-18T08:44:40.795Z,4.20
2023-11-18T08:49:47.044Z,3.89
2023-11-18T08:55:07.787Z,3.84
2023-11-18T09:00:30.775Z,3.56
2023-11-18T09:05:36.600Z,3.15
2023-11-18T09:10:39.109Z,2.84
2023-11-18T09:15:41.142Z,2.58
2023-11-18T09:20:43.328Z,2.44
2023-11-18T09:25:47.932Z,2.34
2023-11-18T09:30:54.898Z,2.22
2023-11-18T09:36:00.041Z,2.16
2023-11-18T09:41:04.608Z,2.11
2023-11-18T09:46:14.272Z,2.06
2023-11-18T09:51:24.468Z,2.07
2023-11-18T09:57:09.272Z,2.08
2023-11-18T10:02:12.022Z,2.08
2023-11-18T10:07:17.503Z,2.11
2023-11-18T10:12:24.624Z,2.14
2023-11-18T10:17:28.237Z,2.16
2023-11-18T10:22:33.131Z,2.21
2023-11-18T10:27:35.196Z,2.28
2023-11-18T10:32:37.898Z,2.33
2023-11-18T10:37:43.900Z,2.40
2023-11-18T10:42:49.805Z,2.45
2023-11-18T10:47:53.389Z,2.49
2023-11-18T10:52:55.657Z,2.52
2023-11-18T10:57:59.319Z,2.57
2023-11-18T11:03:05.008Z,2.63
2023-11-18T11:08:08.814Z,2.66
2023-11-18T11:13:12.124Z,2.72
2023-11-18T11:18:24.042Z,2.85
2023-11-18T11:23:45.474Z,3.09
2023-11-18T11:29:10.721Z,3.39
2023-11-18T11:34:21.364Z,3.64
2023-11-18T11:39:26.341Z,3.85
2023-11-18T11:44:32.925Z,3.95
2023-11-18T11:49:45.507Z,4.02
2023-11-18T11:55:12.915Z,4.03
2023-11-18T12:00:17.691Z,4.07
2023-11-18T12:05:28.261Z,4.10
2023-11-18T12:10:32.729Z,4.20
2023-11-18T12:15:57.756Z,4.32
2023-11-18T12:21:03.297Z,4.35
2023-11-18T12:26:45.185Z,4.36
2023-11-18T12:31:47.510Z,4.36
2023-11-18T12:37:53.938Z,4.32
2023-11-18T12:43:01.197Z,4.32
2023-11-18T12:48:12.778Z,4.31
2023-11-18T12:53:27.980Z,4.26
2023-11-18T12:58:34.915Z,4.20
2023-11-18T13:03:38.149Z,4.13
2023-11-18T13:08:47.106Z,4.09
2023-11-18T13:13:50.572Z,4.04
2023-11-18T13:18:56.890Z,3.94
2023-11-18T13:23:59.038Z,3.88
2023-11-18T13:29:03.229Z,3.84
2023-11-18T13:34:07.837Z,3.74
2023-11-18T13:39:17.765Z,3.61
2023-11-18T13:44:36.561Z,3.53
2023-11-18T13:49:42.963Z,3.47
2023-11-18T13:54:48.536Z,3.40
2023-11-18T13:59:51.767Z,3.34
2023-11-18T14:04:56.371Z,3.30
2023-11-18T14:10:00.584Z,3.27
2023-11-18T14:15:04.468Z,3.23
2023-11-18T14:20:13.334Z,3.18
2023-11-18T14:25:16.110Z,3.13
2023-11-18T14:30:18.357Z,3.08
2023-11-18T14:35:21.424Z,3.02
2023-11-18T14:40:26.584Z,2.97
2023-11-18T14:45:28.648Z,2.93
2023-11-18T14:50:32.571Z,2.89
2023-11-18T14:55:35.062Z,2.85
2023-11-18T15:00:37.150Z,2.81
2023-11-18T15:05:39.230Z,2.77
2023-11-18T15:10:43.458Z,2.73
2023-11-18T15:15:48.945Z,2.70
2023-11-18T15:20:52.826Z,2.68
2023-11-18T15:25:55.456Z,2.65
2023-11-18T15:30:57.571Z,2.63
2023-11-18T15:35:59.711Z,2.63
2023-11-18T15:41:01.981Z,2.62
2023-11-18T15:46:07.337Z,2.60
2023-11-18T15:51:09.473Z,2.58
2023-11-18T15:56:11.945Z,2.55
2023-11-18T16:01:14.843Z,2.53
2023-11-18T16:06:18.569Z,2.51
2023-11-18T16:11:20.743Z,2.50
2023-11-18T16:16:26.053Z,2.47
2023-11-18T16:21:28.745Z,2.45
2023-11-18T16:26:30.966Z,2.43
2023-11-18T16:31:38.836Z,2.40
2023-11-18T16:36:43.442Z,2.37
2023-11-18T16:41:46.410Z,2.32
2023-11-18T16:46:50.955Z,2.29
2023-11-18T16:51:59.222Z,2.26
2023-11-18T16:57:03.006Z,2.23
2023-11-18T17:02:06.709Z,2.21
2023-11-18T17:07:10.872Z,2.18
2023-11-18T17:12:13.145Z,2.14
2023-11-18T17:17:15.549Z,2.10
2023-11-18T17:22:17.733Z,2.08
2023-11-18T17:27:19.790Z,2.05
2023-11-18T17:32:22.051Z,2.03
2023-11-18T17:37:24.444Z,2.02
2023-11-18T17:42:26.596Z,2.01
2023-11-18T17:47:29.050Z,2.01
2023-11-18T17:52:32.658Z,2.00
2023-11-18T17:57:36.338Z,2.00
2023-11-18T18:02:40.594Z,1.98
2023-11-18T18:07:43.110Z,1.97
2023-11-18T18:12:47.533Z,1.94
2023-11-18T18:17:50.253Z,1.88
2023-11-18T18:22:52.598Z,1.85
2023-11-18T18:27:54.981Z,1.83
2023-11-18T18:32:57.028Z,1.82
2023-11-18T18:37:59.560Z,1.81
2023-11-18T18:43:01.693Z,1.79
2023-11-18T18:48:04.232Z,1.79
2023-11-18T18:53:08.052Z,1.80
2023-11-18T18:58:10.353Z,1.80
2023-11-18T19:03:12.919Z,1.83
2023-11-18T19:08:15.390Z,1.83
2023-11-18T19:13:17.517Z,1.84
2023-11-18T19:18:21.687Z,1.84
2023-11-18T19:23:24.081Z,1.84
2023-11-18T19:28:26.244Z,1.84
2023-11-18T19:33:28.450Z,1.84
2023-11-18T19:38:30.962Z,1.83
2023-11-18T19:43:34.313Z,1.81
2023-11-18T19:48:37.150Z,1.79
2023-11-18T19:53:40.493Z,1.76
2023-11-18T19:58:42.751Z,1.74
2023-11-18T20:03:45.276Z,1.72
2023-11-18T20:08:47.561Z,1.68
2023-11-18T20:13:49.714Z,1.64
2023-11-18T20:18:52.791Z,1.59
2023-11-18T20:23:54.936Z,1.56
2023-11-18T20:28:57.664Z,1.54
2023-11-18T20:34:00.432Z,1.53
2023-11-18T20:39:02.759Z,1.53
2023-11-18T20:44:05.424Z,1.53
2023-11-18T20:49:07.913Z,1.53
2023-11-18T20:54:11.749Z,1.52
2023-11-18T20:59:14.442Z,1.51
2023-11-18T21:04:18.011Z,1.50
2023-11-18T21:09:21.470Z,1.50
2023-11-18T21:14:23.722Z,1.51
2023-11-18T21:19:27.388Z,1.50
2023-11-18T21:24:29.458Z,1.50
2023-11-18T21:29:32.569Z,1.49
2023-11-18T21:34:34.638Z,1.49
2023-11-18T21:39:39.500Z,1.48
2023-11-18T21:44:41.651Z,1.48
2023-11-18T21:49:51.772Z,1.49
2023-11-18T21:54:55.192Z,1.49
2023-11-18T21:59:58.309Z,1.49
2023-11-18T22:05:00.772Z,1.50
2023-11-18T22:10:03.179Z,1.51
2023-11-18T22:15:07.637Z,1.51
2023-11-18T22:20:15.025Z,1.52
2023-11-18T22:25:17.109Z,1.51
2023-11-18T22:30:20.657Z,1.51
2023-11-18T22:35:24.481Z,1.50
2023-11-18T22:40:27.278Z,1.50
2023-11-18T22:45:29.549Z,1.51
2023-11-18T22:50:36.076Z,1.50
2023-11-18T22:55:39.150Z,1.50
2023-11-18T23:00:55.783Z,1.50
2023-11-18T23:11:12.827Z,1.48
2023-11-18T23:16:14.874Z,1.46
2023-11-18T23:21:16.814Z,1.45
2023-11-18T23:26:19.931Z,1.45
2023-11-18T23:31:24.502Z,1.44
2023-11-18T23:36:26.714Z,1.43
2023-11-18T23:41:29.443Z,1.42
2023-11-18T23:46:32.416Z,1.42
2023-11-18T23:51:34.449Z,1.42
2023-11-18T23:56:36.526Z,1.41
